sensor_id;sensor_type;location;lat;lon;timestamp;pressure;altitude;pressure_sealevel;temperature;humidity
34674;BME280;20879;55.668;37.858;2023-08-20T00:00:16;100191.66;;;20.85;81.55
34674;BME280;20879;55.668;37.858;2023-08-20T00:02:46;100222.09;;;21.08;82.15
34674;BME280;20879;55.668;37.858;2023-08-20T00:05:32;100216.81;;;21.08;81.98
34674;BME280;20879;55.668;37.858;2023-08-20T00:08:05;100226.47;;;21.08;81.82
34674;BME280;20879;55.668;37.858;2023-08-20T00:10:35;100219.50;;;21.07;81.83
34674;BME280;20879;55.668;37.858;2023-08-20T00:13:08;100221.47;;;21.03;81.86
34674;BME280;20879;55.668;37.858;2023-08-20T00:15:38;100210.16;;;21.01;82.04
34674;BME280;20879;55.668;37.858;2023-08-20T00:18:10;100216.44;;;20.99;82.34
34674;BME280;20879;55.668;37.858;2023-08-20T00:20:44;100199.25;;;20.91;82.39
34674;BME280;20879;55.668;37.858;2023-08-20T00:23:17;100200.56;;;20.83;83.29
34674;BME280;20879;55.668;37.858;2023-08-20T00:25:47;100202.09;;;20.69;83.98
34674;BME280;20879;55.668;37.858;2023-08-20T00:28:20;100205.13;;;20.60;84.46
34674;BME280;20879;55.668;37.858;2023-08-20T00:30:50;100199.03;;;20.59;84.37
34674;BME280;20879;55.668;37.858;2023-08-20T00:33:21;100205.00;;;20.63;85.27
34674;BME280;20879;55.668;37.858;2023-08-20T00:35:54;100190.38;;;20.57;84.81
34674;BME280;20879;55.668;37.858;2023-08-20T00:38:29;100191.59;;;20.50;84.97
34674;BME280;20879;55.668;37.858;2023-08-20T00:40:58;100186.50;;;20.47;85.57
34674;BME280;20879;55.668;37.858;2023-08-20T00:43:35;100173.69;;;20.39;85.79
34674;BME280;20879;55.668;37.858;2023-08-20T00:46:08;100188.31;;;20.45;85.89
34674;BME280;20879;55.668;37.858;2023-08-20T00:48:45;100180.44;;;20.45;86.76
34674;BME280;20879;55.668;37.858;2023-08-20T00:51:19;100163.25;;;20.38;87.08
34674;BME280;20879;55.668;37.858;2023-08-20T00:53:51;100161.56;;;20.37;86.83
34674;BME280;20879;55.668;37.858;2023-08-20T00:56:21;100149.91;;;20.23;87.00
34674;BME280;20879;55.668;37.858;2023-08-20T00:58:53;100165.50;;;20.28;87.27
34674;BME280;20879;55.668;37.858;2023-08-20T01:01:27;100145.47;;;20.25;87.24
34674;BME280;20879;55.668;37.858;2023-08-20T01:04:04;100129.84;;;20.22;87.43
34674;BME280;20879;55.668;37.858;2023-08-20T01:06:46;100152.28;;;20.30;88.05
34674;BME280;20879;55.668;37.858;2023-08-20T01:09:26;100141.41;;;20.18;88.47
34674;BME280;20879;55.668;37.858;2023-08-20T01:12:03;100153.06;;;20.13;89.02
34674;BME280;20879;55.668;37.858;2023-08-20T01:14:38;100156.78;;;20.08;88.55
34674;BME280;20879;55.668;37.858;2023-08-20T01:17:08;100160.34;;;20.07;88.23
34674;BME280;20879;55.668;37.858;2023-08-20T01:19:41;100153.53;;;20.03;88.61
34674;BME280;20879;55.668;37.858;2023-08-20T01:25:27;100158.25;;;20.14;89.25
34674;BME280;20879;55.668;37.858;2023-08-20T01:28:21;100161.53;;;20.19;88.99
34674;BME280;20879;55.668;37.858;2023-08-20T01:30:51;100154.41;;;20.21;88.37
34674;BME280;20879;55.668;37.858;2023-08-20T01:33:31;100138.03;;;20.16;87.95
34674;BME280;20879;55.668;37.858;2023-08-20T01:36:00;100156.75;;;20.28;88.04
34674;BME280;20879;55.668;37.858;2023-08-20T01:38:38;100155.81;;;20.29;87.97
34674;BME280;20879;55.668;37.858;2023-08-20T01:41:12;100160.31;;;20.27;87.86
34674;BME280;20879;55.668;37.858;2023-08-20T01:43:49;100154.97;;;20.28;88.39
34674;BME280;20879;55.668;37.858;2023-08-20T01:46:18;100155.19;;;20.23;88.16
34674;BME280;20879;55.668;37.858;2023-08-20T01:48:53;100156.88;;;20.24;88.49
34674;BME280;20879;55.668;37.858;2023-08-20T01:51:23;100156.88;;;20.24;88.47
34674;BME280;20879;55.668;37.858;2023-08-20T01:53:52;100144.06;;;20.18;88.49
34674;BME280;20879;55.668;37.858;2023-08-20T01:56:23;100161.00;;;20.30;88.57
34674;BME280;20879;55.668;37.858;2023-08-20T01:58:56;100159.09;;;20.34;88.34
34674;BME280;20879;55.668;37.858;2023-08-20T02:01:24;100162.50;;;20.53;88.25
34674;BME280;20879;55.668;37.858;2023-08-20T02:03:54;100161.09;;;20.46;87.64
34674;BME280;20879;55.668;37.858;2023-08-20T02:06:29;100165.44;;;20.47;87.83
34674;BME280;20879;55.668;37.858;2023-08-20T02:09:05;100168.78;;;20.51;87.31
34674;BME280;20879;55.668;37.858;2023-08-20T02:11:35;100165.22;;;20.52;87.59
34674;BME280;20879;55.668;37.858;2023-08-20T02:14:13;100169.47;;;20.54;87.78
34674;BME280;20879;55.668;37.858;2023-08-20T02:16:43;100148.72;;;20.48;87.66
34674;BME280;20879;55.668;37.858;2023-08-20T02:19:18;100168.25;;;20.62;87.55
34674;BME280;20879;55.668;37.858;2023-08-20T02:24:39;100157.94;;;20.57;87.48
34674;BME280;20879;55.668;37.858;2023-08-20T02:27:15;100156.25;;;20.56;87.82
34674;BME280;20879;55.668;37.858;2023-08-20T02:29:53;100171.16;;;20.55;88.01
34674;BME280;20879;55.668;37.858;2023-08-20T02:32:24;100166.06;;;20.52;87.96
34674;BME280;20879;55.668;37.858;2023-08-20T02:34:54;100177.47;;;20.53;88.02
34674;BME280;20879;55.668;37.858;2023-08-20T02:37:26;100162.25;;;20.40;88.19
34674;BME280;20879;55.668;37.858;2023-08-20T02:39:56;100174.75;;;20.54;88.48
34674;BME280;20879;55.668;37.858;2023-08-20T02:42:30;100166.69;;;20.57;87.97
34674;BME280;20879;55.668;37.858;2023-08-20T02:45:03;100166.25;;;20.67;88.06
34674;BME280;20879;55.668;37.858;2023-08-20T02:47:42;100152.19;;;20.68;87.88
34674;BME280;20879;55.668;37.858;2023-08-20T02:50:13;100145.84;;;20.72;87.61
34674;BME280;20879;55.668;37.858;2023-08-20T02:52:54;100144.91;;;20.73;87.76
34674;BME280;20879;55.668;37.858;2023-08-20T02:55:34;100147.69;;;20.70;87.70
34674;BME280;20879;55.668;37.858;2023-08-20T02:58:05;100159.13;;;20.69;87.87
34674;BME280;20879;55.668;37.858;2023-08-20T03:00:51;100139.03;;;20.68;87.86
34674;BME280;20879;55.668;37.858;2023-08-20T03:03:20;100149.84;;;20.79;87.43
34674;BME280;20879;55.668;37.858;2023-08-20T03:05:57;100142.97;;;20.94;86.85
34674;BME280;20879;55.668;37.858;2023-08-20T03:08:27;100138.84;;;21.06;86.07
34674;BME280;20879;55.668;37.858;2023-08-20T03:10:57;100106.03;;;20.95;86.19
34674;BME280;20879;55.668;37.858;2023-08-20T03:13:32;100143.59;;;21.33;85.71
34674;BME280;20879;55.668;37.858;2023-08-20T03:16:17;100148.16;;;21.62;84.69
34674;BME280;20879;55.668;37.858;2023-08-20T03:18:50;100150.97;;;21.91;83.42
34674;BME280;20879;55.668;37.858;2023-08-20T03:21:27;100131.84;;;22.04;82.02
34674;BME280;20879;55.668;37.858;2023-08-20T03:24:12;100151.06;;;22.38;80.82
34674;BME280;20879;55.668;37.858;2023-08-20T03:26:42;100148.47;;;22.52;80.50
34674;BME280;20879;55.668;37.858;2023-08-20T03:29:13;100144.19;;;22.65;79.89
34674;BME280;20879;55.668;37.858;2023-08-20T03:31:46;100146.63;;;22.68;79.22
34674;BME280;20879;55.668;37.858;2023-08-20T03:34:18;100157.09;;;22.70;79.87
34674;BME280;20879;55.668;37.858;2023-08-20T03:36:54;100162.06;;;22.60;79.98
34674;BME280;20879;55.668;37.858;2023-08-20T03:39:24;100180.28;;;22.49;80.50
34674;BME280;20879;55.668;37.858;2023-08-20T03:42:01;100176.44;;;22.40;81.03
34674;BME280;20879;55.668;37.858;2023-08-20T03:44:34;100174.19;;;22.32;81.48
34674;BME280;20879;55.668;37.858;2023-08-20T03:47:12;100172.56;;;22.30;81.94
34674;BME280;20879;55.668;37.858;2023-08-20T03:49:41;100178.25;;;22.22;82.05
34674;BME280;20879;55.668;37.858;2023-08-20T03:52:13;100187.47;;;22.15;82.80
34674;BME280;20879;55.668;37.858;2023-08-20T03:54:48;100174.97;;;22.03;83.32
34674;BME280;20879;55.668;37.858;2023-08-20T03:57:18;100180.81;;;21.92;84.64
34674;BME280;20879;55.668;37.858;2023-08-20T03:59:53;100168.41;;;21.78;85.39
34674;BME280;20879;55.668;37.858;2023-08-20T04:02:44;100158.78;;;21.61;86.49
34674;BME280;20879;55.668;37.858;2023-08-20T04:05:14;100153.69;;;21.58;87.22
34674;BME280;20879;55.668;37.858;2023-08-20T04:07:49;100150.47;;;21.35;88.74
34674;BME280;20879;55.668;37.858;2023-08-20T04:10:20;100160.50;;;21.11;89.53
34674;BME280;20879;55.668;37.858;2023-08-20T04:12:51;100145.06;;;20.87;90.59
34674;BME280;20879;55.668;37.858;2023-08-20T04:15:26;100150.41;;;20.68;92.32
34674;BME280;20879;55.668;37.858;2023-08-20T04:17:58;100151.75;;;20.40;95.51
34674;BME280;20879;55.668;37.858;2023-08-20T04:20:33;100156.31;;;20.37;95.47
34674;BME280;20879;55.668;37.858;2023-08-20T04:23:04;100154.13;;;20.45;95.92
34674;BME280;20879;55.668;37.858;2023-08-20T04:25:47;100160.66;;;20.55;96.41
34674;BME280;20879;55.668;37.858;2023-08-20T04:28:18;100134.34;;;20.55;95.78
34674;BME280;20879;55.668;37.858;2023-08-20T04:30:52;100137.44;;;20.64;95.88
34674;BME280;20879;55.668;37.858;2023-08-20T04:33:41;100096.91;;;20.50;96.60
34674;BME280;20879;55.668;37.858;2023-08-20T04:36:15;100112.13;;;20.61;97.41
34674;BME280;20879;55.668;37.858;2023-08-20T04:38:47;100096.13;;;20.48;97.27
34674;BME280;20879;55.668;37.858;2023-08-20T04:41:16;100082.88;;;20.50;96.52
34674;BME280;20879;55.668;37.858;2023-08-20T04:43:51;100109.91;;;20.53;96.54
34674;BME280;20879;55.668;37.858;2023-08-20T04:46:29;100123.53;;;20.62;96.05
34674;BME280;20879;55.668;37.858;2023-08-20T04:49:01;100112.84;;;20.65;96.26
34674;BME280;20879;55.668;37.858;2023-08-20T04:51:38;100093.66;;;20.45;96.31
34674;BME280;20879;55.668;37.858;2023-08-20T04:54:12;100118.94;;;20.65;95.90
34674;BME280;20879;55.668;37.858;2023-08-20T04:56:54;100127.38;;;20.89;95.43
34674;BME280;20879;55.668;37.858;2023-08-20T04:59:24;100130.47;;;20.98;95.15
34674;BME280;20879;55.668;37.858;2023-08-20T05:02:03;100115.53;;;20.98;94.54
34674;BME280;20879;55.668;37.858;2023-08-20T05:04:47;100130.47;;;20.98;94.24
34674;BME280;20879;55.668;37.858;2023-08-20T05:07:18;100129.09;;;20.90;94.25
34674;BME280;20879;55.668;37.858;2023-08-20T05:09:49;100114.94;;;20.93;94.12
34674;BME280;20879;55.668;37.858;2023-08-20T05:12:20;100129.66;;;20.97;93.99
34674;BME280;20879;55.668;37.858;2023-08-20T05:14:50;100124.13;;;21.02;93.44
34674;BME280;20879;55.668;37.858;2023-08-20T05:17:23;100121.72;;;21.15;93.16
34674;BME280;20879;55.668;37.858;2023-08-20T05:19:57;100129.19;;;21.22;92.26
34674;BME280;20879;55.668;37.858;2023-08-20T05:22:30;100123.03;;;21.39;91.41
34674;BME280;20879;55.668;37.858;2023-08-20T05:25:08;100124.25;;;21.50;90.57
34674;BME280;20879;55.668;37.858;2023-08-20T05:27:46;100120.72;;;21.67;89.46
34674;BME280;20879;55.668;37.858;2023-08-20T05:30:16;100098.53;;;21.87;87.92
34674;BME280;20879;55.668;37.858;2023-08-20T05:32:48;100101.41;;;22.14;86.47
34674;BME280;20879;55.668;37.858;2023-08-20T05:35:24;100090.66;;;22.33;84.92
34674;BME280;20879;55.668;37.858;2023-08-20T05:37:55;100099.28;;;22.51;84.23
34674;BME280;20879;55.668;37.858;2023-08-20T05:40:27;100084.41;;;22.64;83.70
34674;BME280;20879;55.668;37.858;2023-08-20T05:42:57;100087.91;;;22.79;82.75
34674;BME280;20879;55.668;37.858;2023-08-20T05:45:35;100072.56;;;22.86;81.39
34674;BME280;20879;55.668;37.858;2023-08-20T05:48:06;100077.47;;;22.92;81.94
34674;BME280;20879;55.668;37.858;2023-08-20T05:50:37;100078.88;;;22.98;81.27
34674;BME280;20879;55.668;37.858;2023-08-20T05:53:14;100053.59;;;22.94;81.17
34674;BME280;20879;55.668;37.858;2023-08-20T05:55:46;100078.81;;;23.14;81.68
34674;BME280;20879;55.668;37.858;2023-08-20T05:58:16;100077.31;;;23.24;80.53
34674;BME280;20879;55.668;37.858;2023-08-20T06:00:47;100076.94;;;23.16;80.16
34674;BME280;20879;55.668;37.858;2023-08-20T06:03:17;100090.78;;;23.05;80.02
34674;BME280;20879;55.668;37.858;2023-08-20T06:05:49;100080.78;;;23.10;80.51
34674;BME280;20879;55.668;37.858;2023-08-20T06:08:19;100069.47;;;23.23;79.82
34674;BME280;20879;55.668;37.858;2023-08-20T06:10:56;100062.19;;;23.41;79.25
34674;BME280;20879;55.668;37.858;2023-08-20T06:13:34;100055.97;;;23.42;79.07
34674;BME280;20879;55.668;37.858;2023-08-20T06:16:08;100064.66;;;23.29;79.09
34674;BME280;20879;55.668;37.858;2023-08-20T06:18:37;100069.38;;;23.38;78.93
34674;BME280;20879;55.668;37.858;2023-08-20T06:21:11;100057.59;;;23.15;79.65
34674;BME280;20879;55.668;37.858;2023-08-20T06:23:56;100059.72;;;23.09;80.12
34674;BME280;20879;55.668;37.858;2023-08-20T06:26:28;100017.88;;;22.88;79.90
34674;BME280;20879;55.668;37.858;2023-08-20T06:28:58;100049.16;;;23.09;80.39
34674;BME280;20879;55.668;37.858;2023-08-20T06:31:27;100051.72;;;23.25;80.59
34674;BME280;20879;55.668;37.858;2023-08-20T06:34:00;100047.84;;;23.30;79.90
34674;BME280;20879;55.668;37.858;2023-08-20T06:36:34;100047.13;;;23.28;80.11
34674;BME280;20879;55.668;37.858;2023-08-20T06:39:04;100034.56;;;23.32;79.34
34674;BME280;20879;55.668;37.858;2023-08-20T06:41:34;100037.22;;;23.59;77.84
34674;BME280;20879;55.668;37.858;2023-08-20T06:44:12;100035.72;;;23.55;77.03
34674;BME280;20879;55.668;37.858;2023-08-20T06:46:48;100027.19;;;23.64;76.83
34674;BME280;20879;55.668;37.858;2023-08-20T06:49:19;100038.47;;;23.81;76.82
34674;BME280;20879;55.668;37.858;2023-08-20T06:51:54;100025.66;;;24.02;76.51
34674;BME280;20879;55.668;37.858;2023-08-20T06:54:32;100016.78;;;24.16;75.63
34674;BME280;20879;55.668;37.858;2023-08-20T06:57:03;100023.72;;;24.31;75.17
34674;BME280;20879;55.668;37.858;2023-08-20T06:59:35;100010.06;;;24.37;73.88
34674;BME280;20879;55.668;37.858;2023-08-20T07:02:06;100026.00;;;24.76;73.30
34674;BME280;20879;55.668;37.858;2023-08-20T07:04:37;100023.94;;;25.05;72.07
34674;BME280;20879;55.668;37.858;2023-08-20T07:07:12;100016.00;;;25.05;70.76
34674;BME280;20879;55.668;37.858;2023-08-20T07:09:43;100031.78;;;25.07;69.71
34674;BME280;20879;55.668;37.858;2023-08-20T07:12:19;100022.56;;;25.00;68.60
34674;BME280;20879;55.668;37.858;2023-08-20T07:14:54;100022.25;;;24.91;67.77
34674;BME280;20879;55.668;37.858;2023-08-20T07:17:24;100029.78;;;24.85;67.67
34674;BME280;20879;55.668;37.858;2023-08-20T07:19:53;100008.50;;;24.73;67.54
34674;BME280;20879;55.668;37.858;2023-08-20T07:22:31;100032.53;;;24.96;67.37
34674;BME280;20879;55.668;37.858;2023-08-20T07:25:12;100030.59;;;25.11;67.32
34674;BME280;20879;55.668;37.858;2023-08-20T07:27:47;100023.50;;;25.11;66.79
34674;BME280;20879;55.668;37.858;2023-08-20T07:30:23;100008.91;;;24.93;67.15
34674;BME280;20879;55.668;37.858;2023-08-20T07:33:08;100001.41;;;24.87;67.28
34674;BME280;20879;55.668;37.858;2023-08-20T07:35:46;100020.25;;;24.95;68.57
34674;BME280;20879;55.668;37.858;2023-08-20T07:38:25;100014.50;;;25.01;69.24
34674;BME280;20879;55.668;37.858;2023-08-20T07:40:58;100029.31;;;25.17;68.48
34674;BME280;20879;55.668;37.858;2023-08-20T07:43:29;100021.03;;;25.21;67.71
34674;BME280;20879;55.668;37.858;2023-08-20T07:46:05;100018.47;;;25.33;68.04
34674;BME280;20879;55.668;37.858;2023-08-20T07:48:39;100004.91;;;25.37;67.50
34674;BME280;20879;55.668;37.858;2023-08-20T07:51:08;100003.00;;;25.39;67.58
34674;BME280;20879;55.668;37.858;2023-08-20T07:53:46;99999.78;;;25.47;67.75
34674;BME280;20879;55.668;37.858;2023-08-20T07:56:22;99992.25;;;25.65;67.96
34674;BME280;20879;55.668;37.858;2023-08-20T07:58:53;99989.69;;;25.76;67.67
34674;BME280;20879;55.668;37.858;2023-08-20T08:01:24;99995.03;;;25.88;67.23
34674;BME280;20879;55.668;37.858;2023-08-20T08:04:05;99985.03;;;25.91;67.50
34674;BME280;20879;55.668;37.858;2023-08-20T08:06:46;99978.66;;;25.94;66.81
34674;BME280;20879;55.668;37.858;2023-08-20T08:09:25;99983.56;;;26.11;66.25
34674;BME280;20879;55.668;37.858;2023-08-20T08:11:59;99967.03;;;26.08;65.75
34674;BME280;20879;55.668;37.858;2023-08-20T08:14:35;99969.06;;;26.04;65.59
34674;BME280;20879;55.668;37.858;2023-08-20T08:17:06;99970.22;;;25.89;65.51
34674;BME280;20879;55.668;37.858;2023-08-20T08:19:45;99957.53;;;25.57;65.10
34674;BME280;20879;55.668;37.858;2023-08-20T08:22:16;99972.22;;;25.50;66.29
34674;BME280;20879;55.668;37.858;2023-08-20T08:24:55;99952.53;;;25.41;66.75
34674;BME280;20879;55.668;37.858;2023-08-20T08:27:34;99922.25;;;25.32;66.92
34674;BME280;20879;55.668;37.858;2023-08-20T08:30:29;99947.88;;;25.32;66.84
34674;BME280;20879;55.668;37.858;2023-08-20T08:33:07;99957.94;;;25.39;67.22
34674;BME280;20879;55.668;37.858;2023-08-20T08:35:38;99953.31;;;25.54;66.72
34674;BME280;20879;55.668;37.858;2023-08-20T08:38:15;99947.00;;;25.79;66.33
34674;BME280;20879;55.668;37.858;2023-08-20T08:40:49;99937.00;;;26.19;64.53
34674;BME280;20879;55.668;37.858;2023-08-20T08:43:19;99939.34;;;26.46;63.70
34674;BME280;20879;55.668;37.858;2023-08-20T08:45:50;99929.78;;;26.43;63.38
34674;BME280;20879;55.668;37.858;2023-08-20T08:48:43;99920.38;;;26.28;63.08
34674;BME280;20879;55.668;37.858;2023-08-20T08:51:18;99928.56;;;26.25;63.78
34674;BME280;20879;55.668;37.858;2023-08-20T08:53:55;99931.59;;;26.20;64.40
34674;BME280;20879;55.668;37.858;2023-08-20T08:56:32;99929.66;;;26.11;64.21
34674;BME280;20879;55.668;37.858;2023-08-20T08:59:03;99928.06;;;26.08;61.85
34674;BME280;20879;55.668;37.858;2023-08-20T09:01:37;99917.63;;;25.94;60.19
34674;BME280;20879;55.668;37.858;2023-08-20T09:04:11;99933.28;;;25.86;60.76
34674;BME280;20879;55.668;37.858;2023-08-20T09:06:45;99932.31;;;25.87;60.40
34674;BME280;20879;55.668;37.858;2023-08-20T09:09:21;99941.09;;;25.76;60.15
34674;BME280;20879;55.668;37.858;2023-08-20T09:11:54;99935.81;;;25.76;60.36
34674;BME280;20879;55.668;37.858;2023-08-20T09:14:27;99931.44;;;25.75;58.26
34674;BME280;20879;55.668;37.858;2023-08-20T09:17:00;99940.34;;;25.74;57.64
34674;BME280;20879;55.668;37.858;2023-08-20T09:19:35;99934.44;;;25.70;57.86
34674;BME280;20879;55.668;37.858;2023-08-20T09:22:06;99938.69;;;25.84;57.80
34674;BME280;20879;55.668;37.858;2023-08-20T09:24:39;99937.91;;;25.95;57.83
34674;BME280;20879;55.668;37.858;2023-08-20T09:27:17;99938.84;;;25.94;55.69
34674;BME280;20879;55.668;37.858;2023-08-20T09:29:48;99939.31;;;25.88;56.22
34674;BME280;20879;55.668;37.858;2023-08-20T09:32:20;99929.66;;;25.87;56.49
34674;BME280;20879;55.668;37.858;2023-08-20T09:34:52;99924.75;;;25.93;57.04
34674;BME280;20879;55.668;37.858;2023-08-20T09:37:25;99928.84;;;25.97;56.73
34674;BME280;20879;55.668;37.858;2023-08-20T09:40:00;99911.50;;;25.93;56.89
34674;BME280;20879;55.668;37.858;2023-08-20T09:42:33;99910.56;;;26.06;56.57
34674;BME280;20879;55.668;37.858;2023-08-20T09:45:04;99901.31;;;26.11;56.36
34674;BME280;20879;55.668;37.858;2023-08-20T09:47:36;99906.84;;;26.08;56.38
34674;BME280;20879;55.668;37.858;2023-08-20T09:50:10;99901.06;;;26.14;56.65
34674;BME280;20879;55.668;37.858;2023-08-20T09:52:48;99893.59;;;26.31;56.13
34674;BME280;20879;55.668;37.858;2023-08-20T09:55:32;99870.91;;;26.38;55.51
34674;BME280;20879;55.668;37.858;2023-08-20T09:58:05;99885.50;;;26.44;55.21
34674;BME280;20879;55.668;37.858;2023-08-20T10:00:47;99879.25;;;26.56;54.95
34674;BME280;20879;55.668;37.858;2023-08-20T10:03:18;99883.69;;;26.67;54.83
34674;BME280;20879;55.668;37.858;2023-08-20T10:05:50;99877.06;;;26.73;54.32
34674;BME280;20879;55.668;37.858;2023-08-20T10:08:23;99883.66;;;26.90;53.79
34674;BME280;20879;55.668;37.858;2023-08-20T10:11:00;99882.41;;;27.05;52.43
34674;BME280;20879;55.668;37.858;2023-08-20T10:13:37;99847.91;;;26.94;51.28
34674;BME280;20879;55.668;37.858;2023-08-20T10:16:14;99874.81;;;27.12;51.76
34674;BME280;20879;55.668;37.858;2023-08-20T10:18:58;99866.94;;;27.10;51.75
34674;BME280;20879;55.668;37.858;2023-08-20T10:21:30;99873.44;;;27.17;51.97
34674;BME280;20879;55.668;37.858;2023-08-20T10:24:03;99865.66;;;27.37;51.52
34674;BME280;20879;55.668;37.858;2023-08-20T10:26:36;99861.84;;;27.51;51.61
34674;BME280;20879;55.668;37.858;2023-08-20T10:29:39;99863.88;;;27.59;51.35
34674;BME280;20879;55.668;37.858;2023-08-20T10:32:10;99867.50;;;27.58;50.98
34674;BME280;20879;55.668;37.858;2023-08-20T10:34:51;99875.53;;;27.46;50.37
34674;BME280;20879;55.668;37.858;2023-08-20T10:37:27;99858.25;;;27.41;51.24
34674;BME280;20879;55.668;37.858;2023-08-20T10:40:06;99855.94;;;27.47;51.58
34674;BME280;20879;55.668;37.858;2023-08-20T10:42:43;99844.53;;;27.57;51.67
34674;BME280;20879;55.668;37.858;2023-08-20T10:45:16;99847.72;;;27.50;51.99
34674;BME280;20879;55.668;37.858;2023-08-20T10:47:48;99846.97;;;27.48;51.98
34674;BME280;20879;55.668;37.858;2023-08-20T10:50:18;99805.63;;;27.34;51.98
34674;BME280;20879;55.668;37.858;2023-08-20T10:52:50;99845.44;;;27.67;51.81
34674;BME280;20879;55.668;37.858;2023-08-20T10:55:30;99827.97;;;27.74;51.44
34674;BME280;20879;55.668;37.858;2023-08-20T10:58:04;99833.09;;;27.66;52.01
34674;BME280;20879;55.668;37.858;2023-08-20T11:00:44;99806.38;;;27.46;51.96
34674;BME280;20879;55.668;37.858;2023-08-20T11:03:14;99825.06;;;27.56;52.13
34674;BME280;20879;55.668;37.858;2023-08-20T11:05:48;99815.94;;;27.49;53.01
34674;BME280;20879;55.668;37.858;2023-08-20T11:08:27;99818.75;;;27.57;52.46
34674;BME280;20879;55.668;37.858;2023-08-20T11:10:57;99818.13;;;27.65;51.99
34674;BME280;20879;55.668;37.858;2023-08-20T11:13:27;99832.59;;;27.72;51.84
34674;BME280;20879;55.668;37.858;2023-08-20T11:15:59;99821.56;;;27.77;51.84
34674;BME280;20879;55.668;37.858;2023-08-20T11:18:35;99825.31;;;27.74;51.91
34674;BME280;20879;55.668;37.858;2023-08-20T11:21:05;99826.13;;;27.96;51.58
34674;BME280;20879;55.668;37.858;2023-08-20T11:23:42;99822.91;;;27.71;52.00
34674;BME280;20879;55.668;37.858;2023-08-20T11:26:20;99811.91;;;27.54;52.97
34674;BME280;20879;55.668;37.858;2023-08-20T11:28:52;99806.38;;;27.46;53.38
34674;BME280;20879;55.668;37.858;2023-08-20T11:31:28;99811.13;;;27.43;53.58
34674;BME280;20879;55.668;37.858;2023-08-20T11:34:06;99799.06;;;27.38;53.76
34674;BME280;20879;55.668;37.858;2023-08-20T11:36:38;99785.69;;;27.29;54.05
34674;BME280;20879;55.668;37.858;2023-08-20T11:39:11;99783.28;;;27.26;54.17
34674;BME280;20879;55.668;37.858;2023-08-20T11:41:43;99780.97;;;27.32;54.32
34674;BME280;20879;55.668;37.858;2023-08-20T11:44:19;99781.75;;;27.44;54.13
34674;BME280;20879;55.668;37.858;2023-08-20T11:46:56;99780.28;;;27.51;53.33
34674;BME280;20879;55.668;37.858;2023-08-20T11:49:28;99783.00;;;27.40;53.82
34674;BME280;20879;55.668;37.858;2023-08-20T11:51:58;99771.63;;;27.38;53.85
34674;BME280;20879;55.668;37.858;2023-08-20T11:54:32;99783.81;;;27.41;53.54
34674;BME280;20879;55.668;37.858;2023-08-20T11:57:05;99776.72;;;27.41;53.75
34674;BME280;20879;55.668;37.858;2023-08-20T11:59:40;99767.47;;;27.45;53.54
34674;BME280;20879;55.668;37.858;2023-08-20T12:02:24;99768.34;;;27.46;53.60
34674;BME280;20879;55.668;37.858;2023-08-20T12:05:12;99774.59;;;27.66;53.47
34674;BME280;20879;55.668;37.858;2023-08-20T12:07:53;99779.63;;;27.90;52.79
34674;BME280;20879;55.668;37.858;2023-08-20T12:10:32;99777.50;;;27.94;52.99
34674;BME280;20879;55.668;37.858;2023-08-20T12:13:09;99786.13;;;27.76;53.88
34674;BME280;20879;55.668;37.858;2023-08-20T12:15:39;99780.41;;;27.50;55.04
34674;BME280;20879;55.668;37.858;2023-08-20T12:18:11;99775.56;;;27.23;56.26
34674;BME280;20879;55.668;37.858;2023-08-20T12:20:41;99772.31;;;26.98;55.80
34674;BME280;20879;55.668;37.858;2023-08-20T12:23:11;99778.47;;;26.55;54.99
34674;BME280;20879;55.668;37.858;2023-08-20T12:25:49;99781.91;;;26.23;54.90
34674;BME280;20879;55.668;37.858;2023-08-20T12:28:19;99766.31;;;25.73;56.65
34674;BME280;20879;55.668;37.858;2023-08-20T12:30:49;99784.22;;;25.35;57.54
34674;BME280;20879;55.668;37.858;2023-08-20T12:33:23;99781.34;;;25.14;58.14
34674;BME280;20879;55.668;37.858;2023-08-20T12:36:04;99788.84;;;24.96;59.62
34674;BME280;20879;55.668;37.858;2023-08-20T12:38:34;99793.13;;;24.86;59.41
34674;BME280;20879;55.668;37.858;2023-08-20T12:41:04;99803.59;;;24.76;60.07
34674;BME280;20879;55.668;37.858;2023-08-20T12:49:42;99851.13;;;23.89;64.92
34674;BME280;20879;55.668;37.858;2023-08-20T12:52:13;99866.03;;;23.50;67.41
34674;BME280;20879;55.668;37.858;2023-08-20T12:54:43;99876.03;;;23.32;68.15
34674;BME280;20879;55.668;37.858;2023-08-20T12:57:13;99909.78;;;23.14;69.44
34674;BME280;20879;55.668;37.858;2023-08-20T12:59:43;99877.84;;;22.33;72.41
34674;BME280;20879;55.668;37.858;2023-08-20T13:02:13;99868.09;;;21.91;73.77
34674;BME280;20879;55.668;37.858;2023-08-20T13:04:52;99883.47;;;21.68;75.30
34674;BME280;20879;55.668;37.858;2023-08-20T13:07:25;99862.94;;;21.43;74.58
34674;BME280;20879;55.668;37.858;2023-08-20T13:09:56;99880.88;;;21.36;75.95
34674;BME280;20879;55.668;37.858;2023-08-20T13:12:32;99886.66;;;21.43;75.91
34674;BME280;20879;55.668;37.858;2023-08-20T13:15:06;99868.38;;;21.56;75.41
34674;BME280;20879;55.668;37.858;2023-08-20T13:17:38;99857.16;;;21.52;76.15
34674;BME280;20879;55.668;37.858;2023-08-20T13:20:21;99841.75;;;21.30;78.60
34674;BME280;20879;55.668;37.858;2023-08-20T13:22:52;99829.41;;;21.00;80.29
34674;BME280;20879;55.668;37.858;2023-08-20T13:25:27;99851.72;;;21.09;79.63
34674;BME280;20879;55.668;37.858;2023-08-20T13:28:10;99847.56;;;21.05;80.62
34674;BME280;20879;55.668;37.858;2023-08-20T13:30:46;99827.88;;;20.80;82.42
34674;BME280;20879;55.668;37.858;2023-08-20T13:33:16;99818.81;;;20.70;83.26